createdAt,value
2019-05-20T00:02:24.355Z,41.57
2019-05-20T00:04:45.379Z,42.93
2019-05-20T00:07:14.227Z,43.37
2019-05-20T00:09:42.890Z,43.10
2019-05-20T00:12:11.469Z,42.93
2019-05-20T00:14:40.172Z,46.30
2019-05-20T00:17:10.366Z,44.83
2019-05-20T00:19:39.075Z,49.47
2019-05-20T00:22:07.734Z,51.17
2019-05-20T00:24:37.906Z,51.77
2019-05-20T00:27:36.773Z,54.13
2019-05-20T00:38:14.772Z,55.17
2019-05-20T00:40:43.793Z,58.93
2019-05-20T00:46:03.691Z,66.20
2019-05-20T00:48:32.964Z,62.43
2019-05-20T00:51:01.596Z,64.23
2019-05-20T00:53:30.542Z,58.20
2019-05-20T00:56:37.848Z,64.90
2019-05-20T00:59:11.130Z,60.30
2019-05-20T01:01:40.058Z,60.87
2019-05-20T01:04:08.900Z,59.10
2019-05-20T01:06:37.757Z,67.40
2019-05-20T01:09:15.173Z,61.97
2019-05-20T01:11:43.949Z,62.80
2019-05-20T01:14:12.767Z,62.93
2019-05-20T01:16:41.643Z,59.23
2019-05-20T01:19:10.439Z,63.50
2019-05-20T01:24:09.574Z,62.10
2019-05-20T01:26:42.845Z,62.37
2019-05-20T01:29:09.159Z,64.43
2019-05-20T01:31:42.280Z,64.37
2019-05-20T01:34:11.110Z,59.67
2019-05-20T01:36:39.927Z,61.37
2019-05-20T01:39:11.562Z,61.60
2019-05-20T01:41:40.108Z,66.80
2019-05-20T01:44:08.937Z,69.00
2019-05-20T01:46:37.758Z,66.53
2019-05-20T01:49:06.560Z,73.87
2019-05-20T01:52:09.408Z,67.00
2019-05-20T01:54:39.563Z,77.07
2019-05-20T01:57:11.116Z,72.43
2019-05-20T01:59:43.049Z,78.23
2019-05-20T02:02:12.263Z,76.53
2019-05-20T02:04:47.176Z,77.50
2019-05-20T02:07:18.043Z,84.30
2019-05-20T02:09:47.000Z,79.00
2019-05-20T02:12:15.923Z,80.87
2019-05-20T02:14:49.237Z,83.33
2019-05-20T02:17:24.037Z,86.47
2019-05-20T02:22:39.335Z,88.87
2019-05-20T02:25:18.809Z,86.20
2019-05-20T02:27:47.917Z,82.47
2019-05-20T02:30:20.005Z,77.13
2019-05-20T02:32:48.826Z,82.70
2019-05-20T02:35:29.699Z,85.87
2019-05-20T02:38:12.478Z,78.93
2019-05-20T02:40:41.482Z,83.40
2019-05-20T02:43:10.495Z,78.67
2019-05-20T02:45:39.454Z,80.00
2019-05-20T02:48:08.446Z,72.67
2019-05-20T02:53:23.259Z,81.00
2019-05-20T02:55:52.216Z,68.40
2019-05-20T02:58:21.040Z,80.43
2019-05-20T03:00:49.918Z,70.80
2019-05-20T03:03:18.574Z,75.60
2019-05-20T03:05:47.160Z,65.20
2019-05-20T03:08:16.183Z,68.07
2019-05-20T03:10:45.143Z,72.27
2019-05-20T03:13:14.034Z,69.63
2019-05-20T03:16:33.834Z,73.23
2019-05-20T03:23:49.904Z,68.73
2019-05-20T03:26:56.185Z,71.43
2019-05-20T03:29:26.458Z,64.97
2019-05-20T03:32:26.546Z,70.67
2019-05-20T03:35:19.428Z,56.07
2019-05-20T03:37:58.381Z,56.40
2019-05-20T03:40:27.069Z,60.10
2019-05-20T03:43:03.238Z,53.03
2019-05-20T03:45:31.882Z,63.23
2019-05-20T03:48:00.572Z,57.40
2019-05-20T03:50:29.084Z,54.97
2019-05-20T03:52:57.735Z,56.10
2019-05-20T03:55:33.733Z,55.03
2019-05-20T03:58:02.374Z,58.23
2019-05-20T04:00:42.260Z,55.07
2019-05-20T04:03:11.208Z,53.60
2019-05-20T04:05:40.501Z,52.83
2019-05-20T04:08:09.308Z,51.33
2019-05-20T04:10:38.435Z,53.33
2019-05-20T04:13:07.174Z,49.70
2019-05-20T04:15:35.969Z,52.67
2019-05-20T04:18:04.750Z,54.70
2019-05-20T04:20:33.621Z,48.10
2019-05-20T04:23:10.326Z,48.93
2019-05-20T04:25:42.486Z,52.30
2019-05-20T04:28:11.376Z,50.17
2019-05-20T04:30:40.368Z,51.80
2019-05-20T04:33:08.892Z,53.20
2019-05-20T04:35:37.386Z,53.90
2019-05-20T04:38:05.944Z,53.50
2019-05-20T04:40:34.486Z,61.63
2019-05-20T04:49:45.431Z,49.43
2019-05-20T04:52:13.891Z,50.40
2019-05-20T04:54:45.852Z,50.67
2019-05-20T04:57:14.541Z,52.07
2019-05-20T04:59:43.730Z,47.40
2019-05-20T05:12:19.078Z,46.23
2019-05-20T05:14:47.632Z,47.03
2019-05-20T05:17:16.507Z,46.63
2019-05-20T05:19:45.125Z,42.80
2019-05-20T05:22:15.426Z,43.20
2019-05-20T05:24:43.951Z,42.73
2019-05-20T05:27:12.519Z,42.03
2019-05-20T05:29:42.538Z,45.90
2019-05-20T05:32:11.137Z,38.57
2019-05-20T05:34:39.913Z,39.27
2019-05-20T05:37:08.531Z,38.60
2019-05-20T05:39:37.210Z,41.73
2019-05-20T05:42:05.752Z,40.10
2019-05-20T05:44:35.933Z,38.07
2019-05-20T05:47:04.671Z,41.30
2019-05-20T05:49:33.508Z,38.13
2019-05-20T05:52:02.397Z,38.10
2019-05-20T05:54:31.184Z,38.03
2019-05-20T05:56:59.868Z,40.27
2019-05-20T05:59:29.891Z,36.97
2019-05-20T06:02:08.935Z,40.33
2019-05-20T06:05:05.142Z,36.47
2019-05-20T06:07:36.556Z,36.23
2019-05-20T06:10:39.698Z,34.37
2019-05-20T06:13:08.574Z,36.60
2019-05-20T06:15:44.862Z,33.30
2019-05-20T06:18:19.768Z,32.23
2019-05-20T06:20:55.931Z,34.33
2019-05-20T06:23:27.763Z,35.83
2019-05-20T06:35:31.448Z,31.40
2019-05-20T06:41:27.324Z,28.70
2019-05-20T06:54:18.433Z,36.00
2019-05-20T06:56:50.439Z,35.17
2019-05-20T07:02:29.986Z,34.53
2019-05-20T07:05:00.627Z,44.70
2019-05-20T07:07:30.837Z,40.43
2019-05-20T07:10:07.197Z,42.73
2019-05-20T07:12:45.410Z,41.30
2019-05-20T07:15:14.097Z,41.47
2019-05-20T07:21:16.183Z,42.47
2019-05-20T07:27:45.406Z,46.60
2019-05-20T07:30:15.840Z,37.93
2019-05-20T07:32:54.590Z,38.87
2019-05-20T07:35:30.994Z,42.83
2019-05-20T07:38:18.175Z,43.03
2019-05-20T07:40:47.129Z,42.90
2019-05-20T07:43:39.585Z,42.20
2019-05-20T07:46:09.632Z,39.17
2019-05-20T07:51:26.971Z,39.37
2019-05-20T07:54:37.797Z,36.30
2019-05-20T07:57:15.188Z,37.10
2019-05-20T08:02:23.742Z,33.57
2019-05-20T08:05:00.349Z,36.07
2019-05-20T08:08:10.343Z,35.77
2019-05-20T08:10:38.856Z,32.20
2019-05-20T08:13:07.397Z,36.33
2019-05-20T08:15:38.958Z,37.33
2019-05-20T08:18:09.317Z,36.57
2019-05-20T08:20:37.965Z,37.03
2019-05-20T08:23:09.723Z,35.20
2019-05-20T08:25:38.827Z,35.70
2019-05-20T08:28:07.908Z,32.77
2019-05-20T08:30:38.057Z,34.20
2019-05-20T08:33:08.970Z,35.30
2019-05-20T08:35:38.360Z,35.97
2019-05-20T08:38:07.467Z,37.97
2019-05-20T08:40:36.187Z,39.70
2019-05-20T08:43:04.872Z,48.53
2019-05-20T08:45:33.835Z,44.33
2019-05-20T08:48:02.803Z,42.90
2019-05-20T08:50:33.641Z,47.53
2019-05-20T08:53:05.111Z,41.27
2019-05-20T08:58:26.234Z,50.37
2019-05-20T09:00:57.788Z,49.70
2019-05-20T09:03:25.333Z,46.10
2019-05-20T09:05:54.094Z,43.57
2019-05-20T09:08:22.918Z,40.53
2019-05-20T09:11:21.553Z,41.60
2019-05-20T09:13:50.702Z,38.37
2019-05-20T09:16:23.817Z,37.07
2019-05-20T09:18:52.753Z,35.83
2019-05-20T09:21:23.208Z,35.70
2019-05-20T09:23:52.299Z,35.70
2019-05-20T09:26:21.100Z,34.83
2019-05-20T09:28:49.876Z,35.53
2019-05-20T09:31:20.114Z,34.60
2019-05-20T09:33:49.961Z,35.20
2019-05-20T09:36:18.783Z,42.30
2019-05-20T09:38:47.543Z,44.07
2019-05-20T09:41:19.445Z,50.83
2019-05-20T09:43:49.908Z,48.50
2019-05-20T09:46:18.523Z,49.57
2019-05-20T09:48:49.149Z,48.73
2019-05-20T09:51:20.550Z,58.10
2019-05-20T09:53:53.728Z,52.30
2019-05-20T09:56:22.408Z,47.60
2019-05-20T09:58:50.923Z,43.70
2019-05-20T10:01:19.909Z,44.97
2019-05-20T10:03:48.464Z,40.50
2019-05-20T10:06:19.709Z,38.90
2019-05-20T10:08:48.519Z,42.30
2019-05-20T10:11:17.077Z,40.40
2019-05-20T10:13:45.849Z,44.10
2019-05-20T10:16:14.324Z,42.90
2019-05-20T10:18:43.135Z,42.97
2019-05-20T10:21:12.127Z,43.23
2019-05-20T10:23:40.913Z,43.50
2019-05-20T10:26:09.675Z,45.50
2019-05-20T10:28:46.809Z,46.73
2019-05-20T10:31:12.213Z,45.23
2019-05-20T10:33:41.797Z,48.40
2019-05-20T10:36:10.757Z,45.90
2019-05-20T10:38:56.784Z,45.23
2019-05-20T10:41:12.455Z,49.50
2019-05-20T10:43:45.755Z,43.20
2019-05-20T10:46:26.016Z,44.07
2019-05-20T10:48:55.289Z,44.03
2019-05-20T10:51:26.862Z,46.07
2019-05-20T10:53:55.653Z,47.63
2019-05-20T10:56:24.283Z,48.60
2019-05-20T10:58:59.233Z,51.20
2019-05-20T11:01:28.106Z,55.43
2019-05-20T11:03:56.731Z,50.07
2019-05-20T11:06:27.062Z,48.70
2019-05-20T11:09:14.051Z,41.17
2019-05-20T11:11:39.506Z,43.70
2019-05-20T11:14:18.745Z,41.27
2019-05-20T11:18:25.616Z,46.97
2019-05-20T11:19:20.659Z,48.10
2019-05-20T11:21:49.713Z,46.93
2019-05-20T11:24:21.095Z,46.17
2019-05-20T11:29:39.573Z,39.80
2019-05-20T11:32:13.248Z,45.80
2019-05-20T11:34:40.963Z,42.40
2019-05-20T11:37:10.593Z,49.03
2019-05-20T11:39:39.584Z,46.97
2019-05-20T11:42:08.312Z,47.47
2019-05-20T11:44:39.239Z,47.67
2019-05-20T11:47:08.185Z,46.70
2019-05-20T11:49:37.171Z,49.20
2019-05-20T11:52:05.951Z,50.03
2019-05-20T11:54:34.646Z,51.67
2019-05-20T11:57:14.450Z,48.10
2019-05-20T11:59:43.172Z,52.10
2019-05-20T12:04:48.427Z,44.80
2019-05-20T12:07:20.391Z,47.97
2019-05-20T12:09:50.326Z,44.57
2019-05-20T12:15:23.078Z,44.10
2019-05-20T12:17:53.429Z,48.23
2019-05-20T12:20:24.417Z,45.33
2019-05-20T12:23:46.446Z,43.80
2019-05-20T12:32:03.455Z,42.63
2019-05-20T12:34:54.974Z,44.73
2019-05-20T12:37:28.796Z,44.00
2019-05-20T12:40:59.013Z,53.53
2019-05-20T12:43:45.692Z,47.57
2019-05-20T12:49:44.104Z,48.00
2019-05-20T12:52:21.843Z,49.07
2019-05-20T12:55:06.883Z,45.60
2019-05-20T12:57:37.534Z,44.60
2019-05-20T13:00:17.331Z,45.00
2019-05-20T13:05:43.108Z,41.30
2019-05-20T13:08:18.544Z,41.70
2019-05-20T13:10:59.702Z,42.80
2019-05-20T13:13:28.244Z,43.30
2019-05-20T13:15:59.630Z,45.37
2019-05-20T13:18:35.433Z,40.73
2019-05-20T13:21:05.710Z,44.10
2019-05-20T13:23:34.234Z,43.43
2019-05-20T13:26:02.752Z,45.23
2019-05-20T13:28:31.294Z,47.03
2019-05-20T13:30:59.926Z,54.90
2019-05-20T13:33:38.982Z,48.47
2019-05-20T13:36:07.656Z,44.30
2019-05-20T13:38:36.280Z,40.43
2019-05-20T13:41:05.413Z,39.87
2019-05-20T13:43:33.996Z,37.20
2019-05-20T13:46:02.475Z,40.57
2019-05-20T13:48:30.999Z,40.50
2019-05-20T13:50:59.748Z,37.93
2019-05-20T13:53:28.348Z,37.90
2019-05-20T13:55:56.883Z,40.77
2019-05-20T13:58:40.530Z,37.63
2019-05-20T14:01:14.622Z,37.73
2019-05-20T14:12:27.554Z,36.33
2019-05-20T14:13:13.427Z,40.10
2019-05-20T14:15:46.421Z,40.17
2019-05-20T14:18:23.189Z,38.90
2019-05-20T14:24:10.340Z,40.90
2019-05-20T14:26:47.917Z,37.53
2019-05-20T14:29:17.085Z,37.60
2019-05-20T14:31:51.897Z,38.07
2019-05-20T14:34:22.449Z,39.07
2019-05-20T14:36:53.003Z,39.57
2019-05-20T14:39:47.878Z,39.70
2019-05-20T14:42:16.811Z,40.73
2019-05-20T14:44:45.807Z,38.90
2019-05-20T14:47:14.546Z,41.27
2019-05-20T14:49:43.146Z,41.10
2019-05-20T14:52:16.341Z,41.70
2019-05-20T14:54:45.436Z,42.43
2019-05-20T14:57:16.124Z,37.83
2019-05-20T14:59:44.997Z,40.80
2019-05-20T15:02:13.475Z,42.87
2019-05-20T15:04:42.017Z,39.97
2019-05-20T15:07:10.549Z,42.13
2019-05-20T15:09:39.316Z,39.70
2019-05-20T15:12:08.996Z,43.97
2019-05-20T15:14:37.831Z,40.10
2019-05-20T15:17:06.417Z,41.23
2019-05-20T15:19:51.567Z,41.97
2019-05-20T15:22:21.625Z,41.10
2019-05-20T15:24:50.123Z,42.93
2019-05-20T15:27:18.654Z,40.37
2019-05-20T15:29:47.329Z,45.27
2019-05-20T15:32:17.859Z,42.17
2019-05-20T15:34:46.517Z,40.60
2019-05-20T15:37:18.097Z,45.17
2019-05-20T15:39:47.984Z,41.37
2019-05-20T15:42:16.714Z,44.80
2019-05-20T15:44:45.349Z,43.57
2019-05-20T15:47:18.733Z,45.83
2019-05-20T15:49:55.934Z,42.90
2019-05-20T15:52:25.975Z,43.73
2019-05-20T15:54:54.678Z,44.30
2019-05-20T15:57:30.316Z,42.50
2019-05-20T15:59:58.967Z,42.67
2019-05-20T16:02:27.839Z,42.47
2019-05-20T16:04:58.077Z,41.90
2019-05-20T16:07:26.731Z,38.77
2019-05-20T16:09:55.607Z,42.77
2019-05-20T16:15:12.067Z,40.97
2019-05-20T16:17:42.356Z,43.40
2019-05-20T16:21:06.513Z,44.37
2019-05-20T16:23:56.698Z,42.43
2019-05-20T16:30:24.517Z,41.17
2019-05-20T16:33:30.927Z,39.80
2019-05-20T16:35:59.392Z,38.20
2019-05-20T16:38:28.420Z,38.73
2019-05-20T16:41:00.253Z,40.00
2019-05-20T16:43:30.611Z,38.80
2019-05-20T16:46:06.074Z,36.93
2019-05-20T16:48:56.005Z,35.03
2019-05-20T16:54:34.099Z,39.47
2019-05-20T16:57:02.712Z,35.37
2019-05-20T17:05:24.268Z,35.10
2019-05-20T17:07:52.957Z,33.50
2019-05-20T17:10:27.593Z,34.10
2019-05-20T17:13:38.659Z,41.80
2019-05-20T17:16:11.048Z,28.93
2019-05-20T17:22:24.176Z,24.03
2019-05-20T17:28:21.961Z,26.43
2019-05-20T17:30:55.254Z,24.73
2019-05-20T17:39:52.038Z,27.63
2019-05-20T17:53:20.036Z,25.30
2019-05-20T17:56:01.969Z,23.33
2019-05-20T17:58:41.580Z,27.40
2019-05-20T18:02:02.998Z,27.17
2019-05-20T18:04:54.963Z,26.63
2019-05-20T18:17:33.344Z,27.73
2019-05-20T18:20:13.902Z,31.90
2019-05-20T18:26:03.584Z,26.80
2019-05-20T18:42:00.426Z,29.80
2019-05-20T18:51:17.552Z,32.60
2019-05-20T18:54:22.197Z,31.37
2019-05-20T19:03:21.642Z,34.67
2019-05-20T19:05:52.363Z,31.90
2019-05-20T19:08:21.237Z,33.20
2019-05-20T19:13:43.926Z,33.70
2019-05-20T19:16:20.787Z,33.83
2019-05-20T19:18:59.874Z,33.40
2019-05-20T19:21:29.658Z,31.83
2019-05-20T19:24:28.822Z,34.67
2019-05-20T19:31:27.498Z,33.70
2019-05-20T20:00:01.811Z,36.13
2019-05-20T20:05:01.047Z,38.90
2019-05-20T20:18:15.082Z,46.10
2019-05-20T20:27:31.407Z,46.00
2019-05-20T20:33:57.235Z,54.20
2019-05-20T20:49:39.242Z,50.37
2019-05-20T20:52:13.762Z,49.27
2019-05-20T20:55:05.420Z,49.47
2019-05-20T21:03:56.097Z,50.57
2019-05-20T21:13:44.470Z,45.43
2019-05-20T21:24:53.906Z,45.33
2019-05-20T21:30:17.900Z,42.73
2019-05-20T21:38:23.335Z,48.23
2019-05-20T21:40:55.058Z,45.63
2019-05-20T21:53:14.315Z,50.07
2019-05-20T21:55:48.759Z,49.20
2019-05-20T21:58:48.672Z,48.20
2019-05-20T22:01:17.717Z,45.40
2019-05-20T22:11:31.376Z,49.57
2019-05-20T22:27:49.299Z,56.43
2019-05-20T22:43:46.300Z,52.70
2019-05-20T22:46:47.707Z,51.77
2019-05-20T22:52:30.208Z,49.73
2019-05-20T22:55:00.665Z,41.90
2019-05-20T22:57:34.010Z,44.57
2019-05-20T23:02:50.243Z,48.93
2019-05-20T23:19:20.620Z,66.07
2019-05-20T23:21:59.772Z,64.73
2019-05-20T23:41:36.718Z,50.80
2019-05-20T23:47:25.549Z,42.77
2019-05-20T23:50:23.622Z,42.37
2019-05-20T23:52:52.186Z,37.00
2019-05-20T23:55:22.121Z,36.97
2019-05-20T23:57:57.819Z,38.33
